Time;durP1;ratioP1;P1;durP2;ratioP2;P2;SDS_P1;SDS_P2;PMS_P1;PMS_P2;Temp;Humidity;BMP_temperature;BMP_pressure;BME280_temperature;BME280_humidity;BME280_pressure;Samples;Min_cycle;Max_cycle;Signal;HPM_P1;HPM_P2
2022/05/24 00:00:16;;;;;;;3.25;2.12;;;;;;;15.14;51.33;99548.72;1785079;80;21460;-68
2022/05/24 00:02:44;;;;;;;8.98;2.55;;;;;;;15.15;51.33;99550.38;1769932;80;20976;-68
2022/05/24 00:05:10;;;;;;;3.25;2.22;;;;;;;15.19;51.32;99539.49;1790010;80;21107;-68
2022/05/24 00:07:37;;;;;;;3.40;2.12;;;;;;;15.20;51.32;99531.72;1775243;80;21090;-68
2022/05/24 00:10:04;;;;;;;4.10;2.67;;;;;;;15.24;51.32;99535.61;1765578;80;21003;-68
2022/05/24 00:12:30;;;;;;;5.20;2.65;;;;;;;15.25;51.28;99534.57;1790295;80;21595;-69
2022/05/24 00:17:41;;;;;;;4.10;2.72;;;;;;;15.29;51.28;99523.69;1786288;80;21919;-69
2022/05/24 00:20:08;;;;;;;4.92;2.25;;;;;;;15.30;51.27;99521.31;1770257;80;20975;-68
2022/05/24 00:22:34;;;;;;;3.95;2.22;;;;;;;15.31;51.28;99517.56;1762997;80;21005;-68
2022/05/24 00:25:01;;;;;;;6.40;2.30;;;;;;;15.32;51.25;99511.16;1772056;80;20995;-69
2022/05/24 00:27:28;;;;;;;9.15;2.80;;;;;;;15.33;51.27;99499.37;1771859;80;20987;-68
2022/05/24 00:29:55;;;;;;;6.05;2.12;;;;;;;15.35;51.24;99493.76;1776075;80;21058;-68
2022/05/24 00:32:21;;;;;;;5.08;2.30;;;;;;;15.36;51.25;99490.86;1791721;80;21547;-69
2022/05/24 00:34:47;;;;;;;3.02;2.27;;;;;;;15.35;51.24;99491.07;1768104;79;21054;-68
2022/05/24 00:37:13;;;;;;;8.05;2.30;;;;;;;15.35;51.25;99491.89;1781396;80;20955;-68
2022/05/24 00:39:39;;;;;;;5.03;2.30;;;;;;;15.36;51.27;99489.52;1790081;79;20864;-69
2022/05/24 00:42:13;;;;;;;9.53;2.75;;;;;;;15.35;51.27;99483.84;1778831;79;21950;-68
2022/05/24 00:44:43;;;;;;;6.72;2.60;;;;;;;15.37;51.29;99486.31;1760253;81;21448;-68
2022/05/24 00:47:43;;;;;;;6.03;2.20;;;;;;;15.37;51.29;99481.77;1791212;78;21447;-68
2022/05/24 00:50:14;;;;;;;5.33;2.47;;;;;;;15.36;51.29;99473.40;1765826;79;20956;-69
2022/05/24 00:53:02;;;;;;;5.75;2.60;;;;;;;15.38;51.30;99466.44;1801809;78;21009;-68
2022/05/24 00:55:30;;;;;;;3.45;2.00;;;;;;;15.38;51.31;99469.13;1824313;78;21451;-69
2022/05/24 00:58:30;;;;;;;4.62;2.55;;;;;;;15.35;51.33;99472.27;1798730;78;20963;-68
2022/05/24 01:00:56;;;;;;;3.83;2.50;;;;;;;15.35;51.34;99478.46;1800441;78;20989;-69
2022/05/24 01:03:22;;;;;;;6.85;2.67;;;;;;;15.33;51.37;99471.16;1804622;78;20984;-68
2022/05/24 01:05:48;;;;;;;5.33;2.52;;;;;;;15.29;51.42;99471.30;1798682;78;20944;-69
2022/05/24 01:08:14;;;;;;;4.35;2.45;;;;;;;15.21;51.57;99466.21;1825072;78;21537;-68
2022/05/24 01:10:50;;;;;;;4.72;2.40;;;;;;;15.12;51.78;99460.84;1809975;78;20993;-68
2022/05/24 01:13:24;;;;;;;5.60;2.55;;;;;;;15.00;52.01;99456.72;1764579;80;21463;-69
2022/05/24 01:15:51;;;;;;;4.53;2.50;;;;;;;14.92;52.28;99450.80;1822173;78;20928;-69
2022/05/24 01:18:17;;;;;;;9.45;2.65;;;;;;;14.83;52.53;99457.50;1787998;79;21006;-68
2022/05/24 01:20:46;;;;;;;3.45;2.50;;;;;;;14.74;52.76;99460.17;1807743;78;21027;-68
2022/05/24 01:23:44;;;;;;;6.53;2.70;;;;;;;14.66;53.07;99451.05;1795601;79;20999;-68
2022/05/24 01:26:49;;;;;;;5.28;2.45;;;;;;;14.63;53.30;99450.16;1825089;78;21415;-68
2022/05/24 01:29:15;;;;;;;6.83;3.02;;;;;;;14.61;53.54;99445.50;1792258;80;20998;-68
2022/05/24 01:37:10;;;;;;;4.20;2.75;;;;;;;14.59;54.16;99447.59;1788684;79;20995;-68
2022/05/24 01:39:36;;;;;;;6.90;2.65;;;;;;;14.55;54.33;99446.39;1824782;78;20966;-68
2022/05/24 01:42:03;;;;;;;6.67;2.62;;;;;;;14.53;54.46;99445.80;1801846;78;21030;-68
2022/05/24 01:44:37;;;;;;;6.75;3.02;;;;;;;14.51;54.79;99448.69;1828621;78;21455;-68
2022/05/24 01:47:04;;;;;;;5.28;3.10;;;;;;;14.50;54.75;99438.47;1828706;78;21135;-68
2022/05/24 01:49:36;;;;;;;7.67;2.67;;;;;;;14.50;54.84;99447.03;1827756;78;20933;-68
2022/05/24 01:52:10;;;;;;;3.22;2.52;;;;;;;14.48;54.95;99447.27;1821956;78;21480;-69
2022/05/24 01:54:40;;;;;;;4.65;2.77;;;;;;;14.49;55.10;99448.09;1828849;78;21085;-68
2022/05/24 01:57:23;;;;;;;5.90;3.08;;;;;;;14.53;55.19;99449.83;1829018;78;21652;-69
2022/05/24 01:59:50;;;;;;;5.03;2.40;;;;;;;14.52;55.27;99444.15;1815597;78;21601;-68
2022/05/24 02:02:15;;;;;;;4.70;2.95;;;;;;;14.51;55.33;99444.66;1790866;79;21247;-68
2022/05/24 02:04:42;;;;;;;8.15;3.22;;;;;;;14.50;55.37;99443.84;1811589;78;20894;-68
2022/05/24 02:07:15;;;;;;;4.33;3.00;;;;;;;14.50;55.45;99435.78;1798343;78;20957;-69
2022/05/24 02:09:45;;;;;;;5.20;2.30;;;;;;;14.52;55.65;99425.36;1786462;78;20974;-68
2022/05/24 02:12:25;;;;;;;7.65;2.75;;;;;;;14.54;55.61;99415.22;1825311;78;21290;-68
2022/05/24 02:14:53;;;;;;;;;;;;;;;14.52;55.67;99418.14;1804230;78;20959;-69
2022/05/24 02:17:23;;;;;;;7.28;3.02;;;;;;;14.50;55.77;99414.32;1804512;79;20175;-68
2022/05/24 02:19:52;;;;;;;6.35;3.15;;;;;;;14.47;55.86;99412.08;1776468;79;21034;-69
2022/05/24 02:22:21;;;;;;;9.05;3.37;;;;;;;14.45;55.91;99412.84;1797179;78;21503;-68
2022/05/24 02:25:04;;;;;;;7.03;2.95;;;;;;;14.44;55.97;99419.23;1796943;79;21876;-69
2022/05/24 02:27:30;;;;;;;5.83;3.55;;;;;;;14.42;56.06;99415.13;1826568;78;21015;-69
2022/05/24 02:29:56;;;;;;;7.62;3.40;;;;;;;14.42;56.17;99416.48;1816596;78;21506;-68
2022/05/24 02:32:22;;;;;;;6.80;3.10;;;;;;;14.40;56.23;99409.15;1783587;79;20983;-69
2022/05/24 02:34:48;;;;;;;6.60;3.25;;;;;;;14.39;56.32;99405.64;1797438;78;21025;-68
2022/05/24 02:37:14;;;;;;;6.40;3.25;;;;;;;14.38;56.48;99398.66;1791566;79;21235;-68
2022/05/24 02:42:25;;;;;;;4.12;3.00;;;;;;;14.37;56.58;99401.03;1811114;78;20976;-69
2022/05/24 02:44:51;;;;;;;5.90;3.22;;;;;;;14.36;56.68;99400.72;1825182;78;20836;-68
2022/05/24 02:47:16;;;;;;;5.95;2.87;;;;;;;14.36;56.76;99395.35;1824930;78;21066;-68
2022/05/24 02:49:42;;;;;;;8.35;2.50;;;;;;;14.36;56.83;99392.67;1810896;78;21580;-68
2022/05/24 02:52:08;;;;;;;7.95;3.37;;;;;;;14.35;56.91;99389.71;1789911;78;20882;-68
2022/05/24 02:54:34;;;;;;;7.33;3.50;;;;;;;14.34;57.00;99389.40;1796750;79;21692;-68
2022/05/24 02:57:01;;;;;;;10.20;2.62;;;;;;;14.33;57.07;99379.67;1798642;78;20906;-68
2022/05/24 02:59:27;;;;;;;4.58;3.17;;;;;;;14.32;57.18;99379.91;1792100;80;20970;-68
2022/05/24 03:01:53;;;;;;;7.67;3.17;;;;;;;14.31;57.27;99379.59;1792524;78;21670;-68
2022/05/24 03:04:19;;;;;;;7.42;3.35;;;;;;;14.29;57.32;99383.83;1814166;78;20894;-68
2022/05/24 03:09:35;;;;;;;7.45;3.72;;;;;;;14.26;57.50;99378.91;1809676;78;20958;-68
2022/05/24 03:14:51;;;;;;;5.62;3.72;;;;;;;14.25;57.62;99379.14;1814619;78;21117;-68
2022/05/24 03:17:17;;;;;;;9.65;3.58;;;;;;;14.24;57.67;99385.02;1792567;80;20911;-68
2022/05/24 03:19:43;;;;;;;5.78;3.22;;;;;;;14.25;57.67;99385.30;1797250;78;20851;-68
2022/05/24 03:22:09;;;;;;;10.08;3.52;;;;;;;14.24;57.78;99374.29;1798291;78;20970;-68
2022/05/24 03:24:36;;;;;;;4.37;3.00;;;;;;;14.23;57.87;99379.86;1767832;80;21620;-68
2022/05/24 03:27:11;;;;;;;7.67;3.50;;;;;;;14.21;57.94;99388.14;1792710;78;21220;-68
2022/05/24 03:29:34;;;;;;;6.00;3.70;;;;;;;14.20;57.99;99398.55;1775572;78;21010;-68
2022/05/24 03:32:01;;;;;;;6.60;3.67;;;;;;;14.17;58.06;99393.63;1772990;80;21427;-68
2022/05/24 03:34:26;;;;;;;5.25;3.02;;;;;;;14.18;58.18;99392.56;1793030;80;20951;-68
2022/05/24 03:36:52;;;;;;;5.12;3.25;;;;;;;14.16;58.22;99391.16;1792921;78;20963;-68
2022/05/24 03:39:19;;;;;;;9.45;3.50;;;;;;;14.17;58.31;99396.31;1776347;78;21023;-68
2022/05/24 03:41:46;;;;;;;8.25;3.87;;;;;;;14.17;58.37;99390.95;1765029;80;21510;-68
2022/05/24 03:44:12;;;;;;;10.23;3.87;;;;;;;14.08;58.42;99378.83;1781841;77;21349;-68
2022/05/24 03:46:38;;;;;;;6.62;3.62;;;;;;;14.20;58.52;99395.88;1805261;79;20986;-68
2022/05/24 03:49:05;;;;;;;5.87;3.40;;;;;;;14.22;58.59;99391.09;1750867;79;21050;-68
2022/05/24 03:51:31;;;;;;;5.25;3.77;;;;;;;14.24;58.66;99392.23;1771934;79;22090;-68
2022/05/24 03:53:57;;;;;;;6.40;3.62;;;;;;;14.26;58.73;99394.99;1782701;80;20969;-68
2022/05/24 03:56:23;;;;;;;4.62;3.40;;;;;;;14.27;58.78;99388.59;1810486;79;20875;-68
2022/05/24 03:58:49;;;;;;;7.42;3.35;;;;;;;14.28;58.84;99388.91;1749825;79;21526;-68
2022/05/24 04:01:15;;;;;;;3.77;3.10;;;;;;;14.29;58.92;99389.19;1783574;79;20884;-69
2022/05/24 04:03:41;;;;;;;5.78;3.45;;;;;;;14.31;58.96;99388.47;1794054;79;21310;-68
2022/05/24 04:06:09;;;;;;;17.52;3.25;;;;;;;14.34;59.06;99394.77;1814496;79;21014;-68
2022/05/24 04:08:35;;;;;;;6.58;3.60;;;;;;;14.40;59.09;99393.88;1803573;79;21047;-68
2022/05/24 04:11:05;;;;;;;5.62;3.52;;;;;;;14.44;59.13;99391.06;1807815;79;20939;-68
2022/05/24 04:13:33;;;;;;;6.45;3.40;;;;;;;14.66;59.18;99386.64;1793578;79;21499;-68
2022/05/24 04:15:58;;;;;;;6.67;3.55;;;;;;;14.67;59.06;99388.30;1785395;79;21326;-69
2022/05/24 04:18:25;;;;;;;5.58;3.70;;;;;;;14.63;59.04;99390.59;1804452;79;20975;-68
2022/05/24 04:20:51;;;;;;;6.15;3.35;;;;;;;14.61;59.09;99404.73;1792714;79;21440;-68
2022/05/24 04:23:17;;;;;;;9.18;3.90;;;;;;;14.61;59.13;99407.42;1811059;79;21015;-69
2022/05/24 04:25:43;;;;;;;6.22;3.55;;;;;;;14.62;59.13;99412.27;1814258;79;21018;-69
2022/05/24 04:28:10;;;;;;;7.85;4.22;;;;;;;14.59;59.15;99416.74;1811280;79;21062;-68
2022/05/24 04:30:36;;;;;;;6.22;3.30;;;;;;;14.55;59.20;99418.22;1784338;79;21491;-68
2022/05/24 04:33:02;;;;;;;5.67;3.50;;;;;;;14.49;59.22;99410.53;1809118;79;21018;-68
2022/05/24 04:35:29;;;;;;;9.23;3.30;;;;;;;14.42;59.29;99413.28;1759373;79;38500;-68
2022/05/24 04:37:55;;;;;;;5.15;3.30;;;;;;;14.39;59.35;99413.69;1783032;80;21026;-68
2022/05/24 04:42:18;;;;;;;4.55;3.52;;;;;;;14.34;59.42;99413.54;1777127;80;21148;-68
2022/05/24 04:42:49;;;;;;;5.67;3.72;;;;;;;14.33;59.48;99409.69;1810005;78;21022;-68
2022/05/24 04:45:16;;;;;;;9.98;4.65;;;;;;;14.28;59.54;99411.70;1796468;78;21028;-68
2022/05/24 04:47:42;;;;;;;5.28;4.00;;;;;;;14.26;59.59;99409.74;1787780;79;20975;-68
2022/05/24 04:50:11;;;;;;;10.50;3.90;;;;;;;14.25;59.63;99408.64;1796399;78;20993;-68
2022/05/24 04:52:39;;;;;;;6.27;4.10;;;;;;;14.23;59.72;99414.20;1796390;79;21046;-68
2022/05/24 04:55:07;;;;;;;11.65;3.75;;;;;;;14.22;59.80;99413.89;1804415;77;22125;-68
2022/05/24 04:57:33;;;;;;;8.18;4.10;;;;;;;14.21;59.85;99421.66;1795602;80;21053;-68
2022/05/24 04:59:59;;;;;;;7.17;3.83;;;;;;;14.22;59.94;99420.59;1783898;78;20903;-68
2022/05/24 05:02:25;;;;;;;5.60;3.70;;;;;;;14.26;59.99;99416.45;1811632;78;20974;-68
2022/05/24 05:04:52;;;;;;;7.78;4.00;;;;;;;14.30;60.04;99420.34;1819210;78;22067;-68
2022/05/24 05:07:21;;;;;;;7.17;4.08;;;;;;;14.34;60.07;99420.25;1799370;78;20978;-68
2022/05/24 05:09:51;;;;;;;9.15;3.95;;;;;;;14.40;60.10;99421.22;1824352;78;20971;-68
2022/05/24 05:12:17;;;;;;;5.58;3.95;;;;;;;14.45;60.12;99425.42;1828318;78;20936;-68
2022/05/24 05:14:43;;;;;;;6.62;3.75;;;;;;;14.47;60.06;99418.79;1813573;78;21030;-68
2022/05/24 05:17:10;;;;;;;8.85;3.92;;;;;;;14.55;60.20;99420.90;1785932;79;21083;-68
2022/05/24 05:19:36;;;;;;;5.08;3.98;;;;;;;14.60;60.22;99417.84;1808244;78;20947;-68
2022/05/24 05:22:02;;;;;;;9.80;3.87;;;;;;;14.68;60.21;99422.11;1793993;80;21023;-68
2022/05/24 05:24:29;;;;;;;8.45;4.12;;;;;;;14.77;60.22;99420.30;1797284;78;20981;-69
2022/05/24 05:26:55;;;;;;;6.10;3.83;;;;;;;14.86;60.19;99420.30;1814420;78;21021;-68
2022/05/24 05:31:16;;;;;;;6.20;4.42;;;;;;;14.91;60.18;99419.64;1794844;80;21514;-69
2022/05/24 05:31:49;;;;;;;6.62;3.87;;;;;;;14.97;60.16;99420.09;1763865;80;21006;-68
2022/05/24 05:34:15;;;;;;;5.90;4.03;;;;;;;14.94;60.13;99417.86;1825371;78;21797;-68
2022/05/24 05:36:40;;;;;;;6.45;4.17;;;;;;;14.95;60.14;99422.19;1795529;79;20835;-68
2022/05/24 05:39:06;;;;;;;10.03;4.40;;;;;;;14.93;60.13;99429.11;1813052;78;21682;-68
2022/05/24 05:41:33;;;;;;;6.85;4.40;;;;;;;14.89;60.11;99419.85;1794701;79;21219;-68
2022/05/24 05:43:59;;;;;;;6.33;3.70;;;;;;;14.88;60.11;99420.09;1798001;78;20954;-68
2022/05/24 05:46:26;;;;;;;7.37;3.50;;;;;;;14.88;60.16;99419.55;1818845;78;21011;-68
2022/05/24 05:48:52;;;;;;;5.75;3.90;;;;;;;14.89;60.16;99416.34;1793173;80;21463;-68
2022/05/24 05:51:18;;;;;;;8.40;3.85;;;;;;;14.88;60.18;99418.75;1824796;78;21668;-68
2022/05/24 05:53:44;;;;;;;5.97;3.95;;;;;;;14.86;60.22;99424.84;1789294;79;20999;-68
2022/05/24 05:56:20;;;;;;;8.28;3.95;;;;;;;14.85;60.25;99420.51;1808870;78;20962;-68
2022/05/24 05:58:48;;;;;;;6.25;3.92;;;;;;;14.82;60.28;99420.95;1825296;78;21014;-68
2022/05/24 06:01:20;;;;;;;6.72;3.90;;;;;;;14.85;60.34;99423.19;1777163;80;20977;-68
2022/05/24 06:03:46;;;;;;;7.42;3.92;;;;;;;14.81;60.40;99427.39;1795332;78;21499;-68
2022/05/24 06:06:17;;;;;;;6.97;4.35;;;;;;;14.79;60.44;99425.42;1808433;78;21162;-68
2022/05/24 06:08:43;;;;;;;9.15;4.53;;;;;;;14.80;60.50;99423.88;1794927;78;21424;-69
2022/05/24 06:11:09;;;;;;;12.35;4.58;;;;;;;14.83;60.56;99427.97;1812602;78;21010;-68
2022/05/24 06:13:35;;;;;;;6.53;4.40;;;;;;;14.87;60.58;99431.86;1796441;79;20892;-68
2022/05/24 06:16:01;;;;;;;6.40;4.50;;;;;;;14.94;60.63;99431.28;1815679;78;20868;-68
2022/05/24 06:18:27;;;;;;;9.73;4.08;;;;;;;15.04;60.66;99438.30;1791916;80;21119;-68
2022/05/24 06:20:53;;;;;;;7.20;4.70;;;;;;;15.15;60.68;99444.28;1782774;78;21025;-68
2022/05/24 06:23:19;;;;;;;7.10;3.92;;;;;;;15.27;60.69;99443.83;1814127;78;20918;-69
2022/05/24 06:25:45;;;;;;;7.97;4.25;;;;;;;15.39;60.71;99447.42;1816754;78;20986;-69
2022/05/24 06:28:13;;;;;;;9.33;4.65;;;;;;;15.48;60.74;99444.75;1806801;78;20998;-69
2022/05/24 06:30:39;;;;;;;7.37;3.72;;;;;;;15.60;60.72;99451.55;1812414;78;21376;-69
2022/05/24 06:33:06;;;;;;;10.25;4.70;;;;;;;15.69;60.72;99447.48;1765138;78;21713;-68
2022/05/24 06:35:32;;;;;;;7.85;4.50;;;;;;;15.70;60.67;99451.83;1790537;79;21525;-69
2022/05/24 06:37:58;;;;;;;9.05;4.62;;;;;;;15.67;60.70;99448.77;1790191;78;21528;-69
2022/05/24 06:40:24;;;;;;;6.97;4.62;;;;;;;15.68;60.75;99447.73;1805938;78;20875;-69
2022/05/24 06:42:50;;;;;;;7.22;4.33;;;;;;;15.77;60.83;99440.98;1795794;78;21330;-68
2022/05/24 06:45:16;;;;;;;7.30;5.35;;;;;;;15.87;60.88;99449.33;1799734;78;21454;-68
2022/05/24 06:47:42;;;;;;;6.03;4.22;;;;;;;15.87;60.90;99449.33;1775949;78;21020;-69
2022/05/24 06:50:10;;;;;;;7.25;4.58;;;;;;;15.87;60.99;99439.91;1797215;78;20971;-68
2022/05/24 06:52:36;;;;;;;8.65;4.83;;;;;;;15.91;61.07;99450.00;1797064;79;21038;-69
2022/05/24 06:55:04;;;;;;;9.03;4.83;;;;;;;15.93;61.08;99453.82;1818148;78;21007;-69
2022/05/24 06:57:30;;;;;;;10.95;5.20;;;;;;;15.97;61.12;99463.08;1792302;80;21014;-69
2022/05/24 07:02:41;;;;;;;9.50;5.10;;;;;;;15.99;61.16;99460.97;1793247;78;21503;-69
2022/05/24 07:05:12;;;;;;;7.60;5.15;;;;;;;16.10;61.27;99468.78;1792510;78;21057;-68
2022/05/24 07:07:39;;;;;;;8.60;5.17;;;;;;;16.17;61.29;99462.79;1815549;78;21078;-69
2022/05/24 07:10:07;;;;;;;10.15;4.80;;;;;;;16.35;61.32;99475.67;1809991;78;21002;-69
2022/05/24 07:12:34;;;;;;;7.67;4.40;;;;;;;16.54;61.31;99472.36;1791623;79;21490;-69
2022/05/24 07:15:00;;;;;;;10.93;5.62;;;;;;;16.69;61.33;99474.64;1793269;78;21253;-69
2022/05/24 07:17:26;;;;;;;10.45;5.08;;;;;;;16.87;61.38;99474.03;1762916;80;20871;-69
2022/05/24 07:19:52;;;;;;;14.30;5.08;;;;;;;16.93;61.34;99473.61;1813788;78;21013;-69
2022/05/24 07:22:19;;;;;;;10.85;5.22;;;;;;;16.90;61.38;99476.77;1790913;80;21471;-69
2022/05/24 07:24:48;;;;;;;7.10;4.47;;;;;;;16.90;61.44;99476.77;1765079;80;20946;-69
2022/05/24 07:27:13;;;;;;;9.08;4.78;;;;;;;16.94;61.54;99473.39;1784393;78;21324;-69
2022/05/24 07:29:39;;;;;;;11.90;5.25;;;;;;;16.91;61.60;99477.91;1771017;81;21016;-69
2022/05/24 07:32:06;;;;;;;10.08;4.80;;;;;;;16.89;61.74;99480.52;1777097;78;22774;-69
2022/05/24 07:34:33;;;;;;;7.50;4.20;;;;;;;16.84;61.91;99484.45;1786843;80;21006;-69
2022/05/24 07:37:00;;;;;;;9.33;4.17;;;;;;;16.80;62.08;99480.58;1774997;78;20987;-69
2022/05/24 07:39:27;;;;;;;5.42;3.90;;;;;;;16.69;62.26;99477.34;1793703;78;21016;-69
2022/05/24 07:47:29;;;;;;;7.58;4.17;;;;;;;16.40;62.81;99478.47;1768743;79;20950;-69
2022/05/24 07:49:55;;;;;;;7.72;3.85;;;;;;;16.25;63.00;99476.75;1802395;78;21094;-69
2022/05/24 07:52:21;;;;;;;10.30;5.30;;;;;;;16.23;63.17;99478.83;1803070;79;20982;-69
2022/05/24 07:54:47;;;;;;;6.75;3.75;;;;;;;16.20;63.31;99483.33;1811577;78;20969;-68
2022/05/24 07:57:13;;;;;;;9.05;4.35;;;;;;;16.17;63.49;99482.45;1795243;79;21172;-68
2022/05/24 07:59:42;;;;;;;8.78;4.10;;;;;;;16.17;63.63;99481.10;1795017;79;20977;-69
2022/05/24 08:02:07;;;;;;;7.75;3.72;;;;;;;16.20;63.77;99486.54;1810063;78;21084;-69
2022/05/24 08:04:34;;;;;;;6.42;4.50;;;;;;;16.23;63.92;99486.91;1770102;79;21620;-68
2022/05/24 08:07:01;;;;;;;8.35;4.90;;;;;;;16.29;64.04;99491.36;1789819;79;21195;-69
2022/05/24 08:09:27;;;;;;;8.93;4.47;;;;;;;16.33;64.19;99491.20;1800885;78;22016;-69
2022/05/24 08:11:53;;;;;;;6.42;4.12;;;;;;;16.39;64.30;99488.96;1796821;78;21451;-68
2022/05/24 08:14:19;;;;;;;8.15;4.00;;;;;;;16.42;64.41;99499.27;1821368;78;20892;-68
2022/05/24 08:16:45;;;;;;;8.03;4.45;;;;;;;16.53;64.59;99494.14;1807814;78;20886;-68
2022/05/24 08:19:11;;;;;;;6.83;4.33;;;;;;;16.68;64.74;99497.23;1827808;78;20906;-69
2022/05/24 08:21:37;;;;;;;7.92;4.53;;;;;;;16.85;64.85;99499.01;1821591;78;21636;-69
2022/05/24 08:24:04;;;;;;;5.95;4.15;;;;;;;17.01;64.95;99498.86;1822209;78;20881;-68
2022/05/24 08:26:30;;;;;;;7.20;4.53;;;;;;;17.17;65.03;99504.09;1829181;78;20978;-69
2022/05/24 08:28:56;;;;;;;6.87;3.92;;;;;;;17.25;65.03;99500.50;1852490;77;21313;-69
2022/05/24 08:31:22;;;;;;;9.30;3.98;;;;;;;17.29;65.07;99503.02;1805823;77;20997;-68
2022/05/24 08:33:50;;;;;;;6.05;3.90;;;;;;;17.36;65.06;99503.72;1796812;79;21252;-69
2022/05/24 08:36:16;;;;;;;6.90;3.80;;;;;;;17.42;65.06;99501.95;1797724;78;20975;-69
2022/05/24 08:38:42;;;;;;;8.48;4.17;;;;;;;17.43;65.05;99507.12;1796888;78;20863;-69
2022/05/24 08:41:23;;;;;;;7.72;4.37;;;;;;;17.41;65.02;99505.20;1799123;78;20996;-69
2022/05/24 08:49:53;;;;;;;8.33;4.40;;;;;;;17.59;64.91;99507.48;1742189;80;21070;-69
2022/05/24 08:52:19;;;;;;;7.00;4.15;;;;;;;17.71;64.82;99512.31;1779927;78;20947;-68
2022/05/24 08:54:45;;;;;;;6.83;4.28;;;;;;;17.91;64.78;99511.38;1828512;78;20875;-69
2022/05/24 08:57:25;;;;;;;8.93;4.60;;;;;;;18.18;64.69;99512.48;1826574;78;20981;-69
2022/05/24 08:59:59;;;;;;;10.63;4.80;;;;;;;18.43;64.54;99519.71;1829071;78;21131;-69
2022/05/24 09:02:25;;;;;;;6.60;4.15;;;;;;;18.64;64.36;99521.45;1829290;78;21037;-69
2022/05/24 09:04:51;;;;;;;8.48;4.47;;;;;;;18.82;64.24;99507.72;1829197;78;20965;-69
2022/05/24 09:07:31;;;;;;;12.47;3.87;;;;;;;19.11;64.10;99505.19;1828170;78;21560;-69
2022/05/24 09:10:14;;;;;;;7.30;4.05;;;;;;;19.33;63.93;99507.95;1811217;78;20966;-69
2022/05/24 09:13:30;;;;;;;7.33;3.62;;;;;;;19.53;63.72;99498.80;1796602;79;21118;-69
2022/05/24 09:16:08;;;;;;;8.05;3.90;;;;;;;19.87;63.48;99513.05;1809441;78;21082;-69
2022/05/24 09:18:57;;;;;;;6.95;4.50;;;;;;;20.19;63.16;99515.34;1808824;78;20966;-69
2022/05/24 09:21:31;;;;;;;5.70;3.95;;;;;;;20.50;62.98;99514.32;1827590;78;21374;-69
2022/05/24 09:24:17;;;;;;;5.05;3.98;;;;;;;20.84;62.71;99508.94;1828815;78;20970;-69
2022/05/24 09:27:14;;;;;;;10.38;4.50;;;;;;;21.13;62.42;99504.05;1805943;78;21794;-69
2022/05/24 09:29:57;;;;;;;5.37;3.90;;;;;;;21.40;62.05;99499.34;1826543;78;21592;-69
2022/05/24 09:32:42;;;;;;;6.65;3.22;;;;;;;21.82;61.65;99497.92;1813548;78;21514;-69
2022/05/24 09:35:20;;;;;;;6.17;3.77;;;;;;;22.18;61.28;99498.36;1796758;78;21018;-69
2022/05/24 09:38:04;;;;;;;6.42;3.30;;;;;;;22.31;60.80;99499.20;1826023;78;20990;-69
2022/05/24 09:40:48;;;;;;;6.10;3.50;;;;;;;22.51;60.38;99501.70;1828326;78;21330;-69
2022/05/24 09:43:23;;;;;;;10.03;3.37;;;;;;;22.64;59.99;99502.52;1796651;78;21020;-69
2022/05/24 09:45:54;;;;;;;4.05;2.80;;;;;;;22.81;59.63;99504.47;1795511;78;21554;-69
2022/05/24 09:48:23;;;;;;;8.23;3.98;;;;;;;23.05;59.30;99519.69;1805029;78;21439;-69
2022/05/24 09:50:52;;;;;;;8.65;3.95;;;;;;;23.12;58.93;99512.06;1795611;78;21419;-69
2022/05/24 09:53:26;;;;;;;9.50;3.27;;;;;;;23.18;58.59;99510.45;1793872;78;21809;-69
2022/05/24 09:56:04;;;;;;;4.67;2.55;;;;;;;23.42;58.33;99515.33;1825099;78;20898;-69
2022/05/24 09:58:35;;;;;;;5.92;3.55;;;;;;;23.62;58.03;99516.64;1823818;78;21009;-69
2022/05/24 10:01:14;;;;;;;4.20;3.05;;;;;;;23.77;57.55;99526.13;1816262;78;21476;-70
2022/05/24 10:03:46;;;;;;;8.37;3.50;;;;;;;23.61;57.14;99524.56;1795229;78;20863;-69
2022/05/24 10:06:24;;;;;;;5.47;3.47;;;;;;;23.54;57.01;99528.11;1787815;79;21729;-69
2022/05/24 10:08:59;;;;;;;5.60;3.70;;;;;;;23.27;56.75;99529.74;1792987;80;21061;-69
2022/05/24 10:11:51;;;;;;;5.78;3.55;;;;;;;22.95;56.64;99527.31;1760940;81;21082;-69
2022/05/24 10:14:26;;;;;;;8.55;2.92;;;;;;;22.96;56.79;99522.16;1791653;78;21002;-69
2022/05/24 10:17:33;;;;;;;6.03;2.95;;;;;;;23.25;56.78;99519.69;1787693;79;20950;-69
2022/05/24 10:20:16;;;;;;;4.60;3.60;;;;;;;23.50;56.61;99516.14;1787953;79;21714;-70
2022/05/24 10:22:54;;;;;;;5.12;3.45;;;;;;;23.39;56.33;99509.33;1802778;78;21028;-69
2022/05/24 10:25:46;;;;;;;6.42;3.12;;;;;;;23.40;56.28;99516.92;1762901;80;21101;-69
2022/05/24 10:28:37;;;;;;;4.83;3.30;;;;;;;23.62;56.20;99516.64;1770951;81;21381;-70
2022/05/24 10:31:24;;;;;;;11.05;3.72;;;;;;;23.85;56.13;99517.40;1771017;78;21012;-69
2022/05/24 10:40:13;;;;;;;4.47;3.05;;;;;;;24.34;55.36;99516.92;1765602;79;20966;-70
2022/05/24 10:43:07;;;;;;;8.23;3.42;;;;;;;24.56;55.04;99517.06;1766849;79;21402;-71
2022/05/24 10:46:05;;;;;;;5.87;3.72;;;;;;;24.56;54.70;99521.16;1799469;77;20970;-70
2022/05/24 10:48:43;;;;;;;4.62;3.10;;;;;;;24.50;54.64;99524.98;1786201;78;21826;-70
2022/05/24 10:51:31;;;;;;;3.80;2.95;;;;;;;24.77;54.48;99525.37;1791855;78;20974;-71
2022/05/24 10:54:19;;;;;;;8.90;3.37;;;;;;;24.79;54.14;99522.61;1800866;78;21045;-70
2022/05/24 10:56:50;;;;;;;5.55;3.27;;;;;;;24.64;53.87;99516.44;1792747;80;21013;-71
2022/05/24 10:59:30;;;;;;;18.95;4.37;;;;;;;24.34;53.73;99521.55;1815793;78;21484;-71
2022/05/24 11:02:00;;;;;;;7.40;3.35;;;;;;;24.22;53.67;99521.06;1810433;78;21564;-71
2022/05/24 11:04:34;;;;;;;8.98;3.52;;;;;;;24.06;53.62;99520.31;1809241;78;21010;-70
2022/05/24 11:07:06;;;;;;;7.08;3.10;;;;;;;24.03;53.78;99515.39;1813378;78;20959;-70
2022/05/24 11:09:33;;;;;;;11.12;3.55;;;;;;;23.96;53.85;99518.96;1809142;78;20966;-68
2022/05/24 11:12:12;;;;;;;6.65;3.37;;;;;;;24.21;53.93;99514.80;1737983;80;21016;-70
2022/05/24 11:14:43;;;;;;;7.55;3.67;;;;;;;24.33;53.80;99518.55;1803853;78;21884;-69
2022/05/24 11:17:10;;;;;;;9.73;3.50;;;;;;;24.57;53.79;99520.03;1783703;78;21156;-69
2022/05/24 11:19:36;;;;;;;6.08;3.60;;;;;;;24.64;53.60;99510.44;1771508;80;20986;-70
2022/05/24 11:22:33;;;;;;;4.20;3.25;;;;;;;24.72;53.59;99514.48;1810767;77;20887;-70
2022/05/24 11:25:04;;;;;;;8.75;4.30;;;;;;;24.76;53.53;99515.55;1811591;78;21081;-69
2022/05/24 11:27:53;;;;;;;4.87;3.17;;;;;;;24.56;53.49;99515.70;1817330;77;21871;-70
2022/05/24 11:30:36;;;;;;;4.17;3.60;;;;;;;24.49;53.48;99509.75;1848953;77;21093;-69
2022/05/24 11:33:14;;;;;;;8.58;3.67;;;;;;;24.41;53.54;99510.33;1797385;77;20938;-69
2022/05/24 11:35:44;;;;;;;7.78;3.55;;;;;;;24.10;53.60;99507.73;1811134;78;21453;-69
2022/05/24 11:38:30;;;;;;;7.20;3.85;;;;;;;23.97;53.74;99504.80;1762943;79;21014;-69
2022/05/24 11:41:14;;;;;;;4.55;3.08;;;;;;;23.81;53.79;99499.98;1806874;77;21652;-70
2022/05/24 11:43:46;;;;;;;6.15;3.30;;;;;;;23.57;53.91;99494.89;1784662;80;20903;-69
2022/05/24 11:46:44;;;;;;;6.15;3.10;;;;;;;23.62;54.04;99500.30;1782895;79;21096;-69
2022/05/24 11:49:24;;;;;;;4.78;3.25;;;;;;;23.60;54.14;99497.87;1811036;78;20982;-70
2022/05/24 11:51:59;;;;;;;7.15;3.60;;;;;;;23.62;54.26;99494.86;1821291;78;21013;-69
2022/05/24 11:54:30;;;;;;;5.90;3.22;;;;;;;23.55;54.43;99502.50;1783444;79;21691;-69
2022/05/24 11:57:09;;;;;;;8.25;3.83;;;;;;;23.39;54.54;99512.59;1800899;78;21022;-70
2022/05/24 11:59:46;;;;;;;11.90;4.83;;;;;;;23.19;54.71;99527.02;1820281;78;20978;-69
2022/05/24 12:07:53;;;;;;;7.45;4.72;;;;;;;22.75;55.08;99550.42;1797361;78;20894;-69
2022/05/24 12:07:56;;;;;;;7.92;3.87;;;;;;;21.44;57.05;99565.56;1806279;77;21083;-69
2022/05/24 12:10:43;;;;;;;7.25;5.08;;;;;;;21.05;58.07;99555.47;1781419;78;21764;-69
2022/05/24 12:13:31;;;;;;;6.45;5.30;;;;;;;21.00;58.89;99563.58;1783746;78;21089;-69
2022/05/24 12:16:04;;;;;;;9.83;5.62;;;;;;;21.11;59.53;99562.59;1811867;77;20958;-69
2022/05/24 12:18:41;;;;;;;7.40;5.10;;;;;;;21.20;60.18;99565.13;1812365;78;21038;-69
2022/05/24 12:21:07;;;;;;;7.75;5.05;;;;;;;21.34;60.72;99578.53;1779544;78;21190;-69
2022/05/24 12:23:37;;;;;;;7.03;5.15;;;;;;;21.40;61.18;99578.84;1807728;78;21478;-69
2022/05/24 12:26:13;;;;;;;8.23;5.17;;;;;;;21.46;61.63;99577.53;1798559;78;20986;-70
2022/05/24 12:28:52;;;;;;;8.43;5.35;;;;;;;21.63;62.06;99579.54;1794794;78;21533;-69
2022/05/24 12:31:25;;;;;;;6.33;5.03;;;;;;;21.91;62.25;99585.98;1793575;77;21025;-69